Rockville, Utah
Current Conditions -  °F | °C
As of 4:55 PM on Friday 19 Dec 2014 (Local Time) from KAZC Reporting Station
Clear Clear  
Wind Chill: 46°   Ceiling: Unl
Heat Index: 46°   Visibility: 10mi
Dew Point: 31°   Wind: 0mph
Humidity: 56%   Direction: NA
Pressure: 30.21"   Gusts: NA
Location:  37.16°N, 113.04°W
Report Text: KAZC 192355Z AUTO 00000KT 10SM CLR 08/00 A3021 RMK AO2 T00791005 10208 21119
Loading
Personal Weather Stations






























Interactive Weather Map New forecast layout! Learn more

10-Day Weather Forecast

Advertisements
Track Severe Weather on mobile